sensor_id;sensor_type;location;lat;lon;timestamp;P1;durP1;ratioP1;P2;durP2;ratioP2
67274;SDS011;55463;52.324;5.122;2022-12-11T00:01:49;101.63;;;29.00;;
67274;SDS011;55463;52.324;5.122;2022-12-11T00:04:15;97.32;;;28.65;;
67274;SDS011;55463;52.324;5.122;2022-12-11T00:06:40;110.63;;;31.33;;
67274;SDS011;55463;52.324;5.122;2022-12-11T00:09:06;110.35;;;30.65;;
67274;SDS011;55463;52.324;5.122;2022-12-11T00:11:32;112.85;;;29.70;;
67274;SDS011;55463;52.324;5.122;2022-12-11T00:13:57;105.22;;;30.13;;
67274;SDS011;55463;52.324;5.122;2022-12-11T00:16:23;95.80;;;28.65;;
67274;SDS011;55463;52.324;5.122;2022-12-11T00:18:48;105.43;;;31.42;;
67274;SDS011;55463;52.324;5.122;2022-12-11T00:21:13;105.78;;;31.42;;
67274;SDS011;55463;52.324;5.122;2022-12-11T00:23:39;97.28;;;28.33;;
67274;SDS011;55463;52.324;5.122;2022-12-11T00:26:06;106.70;;;31.58;;
67274;SDS011;55463;52.324;5.122;2022-12-11T00:28:33;109.25;;;31.00;;
67274;SDS011;55463;52.324;5.122;2022-12-11T00:31:02;90.68;;;30.38;;
67274;SDS011;55463;52.324;5.122;2022-12-11T00:33:30;82.95;;;29.42;;
67274;SDS011;55463;52.324;5.122;2022-12-11T00:35:56;88.50;;;30.13;;
67274;SDS011;55463;52.324;5.122;2022-12-11T00:38:21;84.95;;;27.90;;
67274;SDS011;55463;52.324;5.122;2022-12-11T00:40:48;96.15;;;29.42;;
67274;SDS011;55463;52.324;5.122;2022-12-11T00:43:13;111.13;;;31.48;;
67274;SDS011;55463;52.324;5.122;2022-12-11T00:45:40;91.22;;;29.33;;
67274;SDS011;55463;52.324;5.122;2022-12-11T00:48:07;98.60;;;31.30;;
67274;SDS011;55463;52.324;5.122;2022-12-11T00:50:34;89.22;;;28.60;;
67274;SDS011;55463;52.324;5.122;2022-12-11T00:53:00;78.63;;;26.17;;
67274;SDS011;55463;52.324;5.122;2022-12-11T00:55:26;85.65;;;27.77;;
67274;SDS011;55463;52.324;5.122;2022-12-11T00:57:53;85.65;;;29.00;;
67274;SDS011;55463;52.324;5.122;2022-12-11T01:00:19;77.15;;;28.63;;
67274;SDS011;55463;52.324;5.122;2022-12-11T01:02:45;69.32;;;25.42;;
67274;SDS011;55463;52.324;5.122;2022-12-11T01:05:10;73.53;;;25.10;;
67274;SDS011;55463;52.324;5.122;2022-12-11T01:07:36;77.72;;;27.55;;
67274;SDS011;55463;52.324;5.122;2022-12-11T01:10:02;83.63;;;28.90;;
67274;SDS011;55463;52.324;5.122;2022-12-11T01:12:46;75.45;;;26.48;;
67274;SDS011;55463;52.324;5.122;2022-12-11T01:15:11;75.95;;;26.50;;
67274;SDS011;55463;52.324;5.122;2022-12-11T01:17:37;77.90;;;26.50;;
67274;SDS011;55463;52.324;5.122;2022-12-11T01:20:02;80.43;;;27.50;;
67274;SDS011;55463;52.324;5.122;2022-12-11T01:22:29;75.53;;;26.88;;
67274;SDS011;55463;52.324;5.122;2022-12-11T01:24:55;78.10;;;27.58;;
67274;SDS011;55463;52.324;5.122;2022-12-11T01:27:20;84.63;;;27.80;;
67274;SDS011;55463;52.324;5.122;2022-12-11T01:29:46;92.88;;;32.08;;
67274;SDS011;55463;52.324;5.122;2022-12-11T01:32:11;85.72;;;29.13;;
67274;SDS011;55463;52.324;5.122;2022-12-11T01:34:36;76.63;;;28.45;;
67274;SDS011;55463;52.324;5.122;2022-12-11T01:37:02;82.80;;;29.77;;
67274;SDS011;55463;52.324;5.122;2022-12-11T01:39:27;86.85;;;30.05;;
67274;SDS011;55463;52.324;5.122;2022-12-11T01:41:59;75.97;;;28.50;;
67274;SDS011;55463;52.324;5.122;2022-12-11T01:46:51;85.00;;;30.02;;
67274;SDS011;55463;52.324;5.122;2022-12-11T01:49:17;86.75;;;31.35;;
67274;SDS011;55463;52.324;5.122;2022-12-11T01:52:01;86.55;;;29.42;;
67274;SDS011;55463;52.324;5.122;2022-12-11T01:54:31;80.55;;;29.95;;
67274;SDS011;55463;52.324;5.122;2022-12-11T01:56:57;82.13;;;29.15;;
67274;SDS011;55463;52.324;5.122;2022-12-11T01:59:28;90.15;;;32.20;;
67274;SDS011;55463;52.324;5.122;2022-12-11T02:04:39;85.50;;;29.52;;
67274;SDS011;55463;52.324;5.122;2022-12-11T02:07:06;80.57;;;28.52;;
67274;SDS011;55463;52.324;5.122;2022-12-11T02:09:32;77.35;;;29.75;;
67274;SDS011;55463;52.324;5.122;2022-12-11T02:12:01;76.18;;;28.42;;
67274;SDS011;55463;52.324;5.122;2022-12-11T02:14:38;71.60;;;26.08;;
67274;SDS011;55463;52.324;5.122;2022-12-11T02:17:09;71.07;;;27.80;;
67274;SDS011;55463;52.324;5.122;2022-12-11T02:25:10;63.88;;;27.25;;
67274;SDS011;55463;52.324;5.122;2022-12-11T02:27:45;64.18;;;26.60;;
67274;SDS011;55463;52.324;5.122;2022-12-11T02:30:20;61.60;;;25.38;;
67274;SDS011;55463;52.324;5.122;2022-12-11T02:35:37;57.53;;;25.30;;
67274;SDS011;55463;52.324;5.122;2022-12-11T02:38:10;56.97;;;25.00;;
67274;SDS011;55463;52.324;5.122;2022-12-11T02:40:40;54.97;;;23.92;;
67274;SDS011;55463;52.324;5.122;2022-12-11T02:43:08;53.95;;;25.00;;
67274;SDS011;55463;52.324;5.122;2022-12-11T02:45:36;53.08;;;24.92;;
67274;SDS011;55463;52.324;5.122;2022-12-11T02:48:05;51.40;;;24.58;;
67274;SDS011;55463;52.324;5.122;2022-12-11T02:50:34;49.38;;;24.10;;
67274;SDS011;55463;52.324;5.122;2022-12-11T02:53:02;47.15;;;23.15;;
67274;SDS011;55463;52.324;5.122;2022-12-11T02:55:29;47.20;;;23.23;;
67274;SDS011;55463;52.324;5.122;2022-12-11T02:57:59;44.60;;;23.13;;
67274;SDS011;55463;52.324;5.122;2022-12-11T03:00:30;52.15;;;23.85;;
67274;SDS011;55463;52.324;5.122;2022-12-11T03:02:56;51.33;;;25.85;;
67274;SDS011;55463;52.324;5.122;2022-12-11T03:05:22;53.80;;;24.75;;
67274;SDS011;55463;52.324;5.122;2022-12-11T03:07:48;48.03;;;22.75;;
67274;SDS011;55463;52.324;5.122;2022-12-11T03:10:14;46.83;;;23.77;;
67274;SDS011;55463;52.324;5.122;2022-12-11T03:12:46;50.55;;;24.08;;
67274;SDS011;55463;52.324;5.122;2022-12-11T03:15:14;49.58;;;23.35;;
67274;SDS011;55463;52.324;5.122;2022-12-11T03:22:53;49.35;;;22.70;;
67274;SDS011;55463;52.324;5.122;2022-12-11T03:26:09;52.45;;;22.90;;
67274;SDS011;55463;52.324;5.122;2022-12-11T03:28:28;40.00;;;20.75;;
67274;SDS011;55463;52.324;5.122;2022-12-11T03:30:59;45.05;;;21.48;;
67274;SDS011;55463;52.324;5.122;2022-12-11T03:33:33;39.22;;;21.02;;
67274;SDS011;55463;52.324;5.122;2022-12-11T03:36:04;45.17;;;21.13;;
67274;SDS011;55463;52.324;5.122;2022-12-11T03:41:08;42.28;;;20.75;;
67274;SDS011;55463;52.324;5.122;2022-12-11T03:43:36;41.30;;;19.77;;
67274;SDS011;55463;52.324;5.122;2022-12-11T03:46:03;42.35;;;20.33;;
67274;SDS011;55463;52.324;5.122;2022-12-11T03:48:30;43.28;;;20.65;;
67274;SDS011;55463;52.324;5.122;2022-12-11T03:50:57;39.03;;;18.73;;
67274;SDS011;55463;52.324;5.122;2022-12-11T03:53:24;39.05;;;20.60;;
67274;SDS011;55463;52.324;5.122;2022-12-11T03:55:50;45.78;;;22.38;;
67274;SDS011;55463;52.324;5.122;2022-12-11T03:58:18;43.40;;;20.48;;
67274;SDS011;55463;52.324;5.122;2022-12-11T04:00:43;41.53;;;20.75;;
67274;SDS011;55463;52.324;5.122;2022-12-11T04:03:08;41.38;;;19.65;;
67274;SDS011;55463;52.324;5.122;2022-12-11T04:05:37;36.00;;;18.95;;
67274;SDS011;55463;52.324;5.122;2022-12-11T04:08:02;40.88;;;21.17;;
67274;SDS011;55463;52.324;5.122;2022-12-11T04:10:28;42.35;;;21.27;;
67274;SDS011;55463;52.324;5.122;2022-12-11T04:12:54;39.47;;;19.65;;
67274;SDS011;55463;52.324;5.122;2022-12-11T04:15:19;42.28;;;21.63;;
67274;SDS011;55463;52.324;5.122;2022-12-11T04:17:44;37.42;;;18.92;;
67274;SDS011;55463;52.324;5.122;2022-12-11T04:20:28;33.47;;;18.23;;
67274;SDS011;55463;52.324;5.122;2022-12-11T04:23:13;35.75;;;18.17;;
67274;SDS011;55463;52.324;5.122;2022-12-11T04:26:03;34.92;;;18.00;;
67274;SDS011;55463;52.324;5.122;2022-12-11T04:28:33;36.45;;;18.70;;
67274;SDS011;55463;52.324;5.122;2022-12-11T04:31:00;36.67;;;18.45;;
67274;SDS011;55463;52.324;5.122;2022-12-11T04:33:25;34.15;;;19.05;;
67274;SDS011;55463;52.324;5.122;2022-12-11T04:35:51;36.00;;;19.35;;
67274;SDS011;55463;52.324;5.122;2022-12-11T04:38:17;36.25;;;18.55;;
67274;SDS011;55463;52.324;5.122;2022-12-11T04:40:42;38.50;;;18.60;;
67274;SDS011;55463;52.324;5.122;2022-12-11T04:43:07;33.35;;;18.42;;
67274;SDS011;55463;52.324;5.122;2022-12-11T04:45:33;38.97;;;19.73;;
67274;SDS011;55463;52.324;5.122;2022-12-11T04:47:58;39.50;;;20.75;;
67274;SDS011;55463;52.324;5.122;2022-12-11T04:50:23;36.00;;;19.73;;
67274;SDS011;55463;52.324;5.122;2022-12-11T04:52:50;38.10;;;19.13;;
67274;SDS011;55463;52.324;5.122;2022-12-11T04:55:19;40.05;;;20.08;;
67274;SDS011;55463;52.324;5.122;2022-12-11T04:57:44;33.50;;;18.25;;
67274;SDS011;55463;52.324;5.122;2022-12-11T05:00:10;36.45;;;19.27;;
67274;SDS011;55463;52.324;5.122;2022-12-11T05:02:37;35.00;;;17.77;;
67274;SDS011;55463;52.324;5.122;2022-12-11T05:05:04;37.17;;;19.60;;
67274;SDS011;55463;52.324;5.122;2022-12-11T05:07:31;33.78;;;17.65;;
67274;SDS011;55463;52.324;5.122;2022-12-11T05:09:57;34.72;;;18.15;;
67274;SDS011;55463;52.324;5.122;2022-12-11T05:12:22;33.25;;;17.20;;
67274;SDS011;55463;52.324;5.122;2022-12-11T05:14:50;32.60;;;17.23;;
67274;SDS011;55463;52.324;5.122;2022-12-11T05:17:16;33.20;;;17.30;;
67274;SDS011;55463;52.324;5.122;2022-12-11T05:19:41;33.03;;;17.15;;
67274;SDS011;55463;52.324;5.122;2022-12-11T05:22:07;33.55;;;17.83;;
67274;SDS011;55463;52.324;5.122;2022-12-11T05:24:32;34.92;;;18.83;;
67274;SDS011;55463;52.324;5.122;2022-12-11T05:26:57;33.33;;;18.85;;
67274;SDS011;55463;52.324;5.122;2022-12-11T05:29:23;35.15;;;17.63;;
67274;SDS011;55463;52.324;5.122;2022-12-11T05:31:48;37.75;;;19.15;;
67274;SDS011;55463;52.324;5.122;2022-12-11T05:34:14;38.25;;;19.13;;
67274;SDS011;55463;52.324;5.122;2022-12-11T05:36:40;35.75;;;18.83;;
67274;SDS011;55463;52.324;5.122;2022-12-11T05:39:05;38.28;;;19.70;;
67274;SDS011;55463;52.324;5.122;2022-12-11T05:41:30;38.83;;;19.38;;
67274;SDS011;55463;52.324;5.122;2022-12-11T05:43:57;37.35;;;19.00;;
67274;SDS011;55463;52.324;5.122;2022-12-11T05:46:24;38.08;;;18.20;;
67274;SDS011;55463;52.324;5.122;2022-12-11T05:48:54;36.47;;;19.83;;
67274;SDS011;55463;52.324;5.122;2022-12-11T05:51:22;34.08;;;18.35;;
67274;SDS011;55463;52.324;5.122;2022-12-11T05:53:48;41.35;;;19.88;;
67274;SDS011;55463;52.324;5.122;2022-12-11T05:56:16;37.72;;;19.08;;
67274;SDS011;55463;52.324;5.122;2022-12-11T05:58:47;38.03;;;19.17;;
67274;SDS011;55463;52.324;5.122;2022-12-11T06:01:21;33.90;;;18.60;;
67274;SDS011;55463;52.324;5.122;2022-12-11T06:03:48;40.67;;;19.67;;
67274;SDS011;55463;52.324;5.122;2022-12-11T06:06:14;40.30;;;20.08;;
67274;SDS011;55463;52.324;5.122;2022-12-11T06:08:39;43.55;;;21.65;;
67274;SDS011;55463;52.324;5.122;2022-12-11T06:11:05;35.42;;;19.23;;
67274;SDS011;55463;52.324;5.122;2022-12-11T06:13:30;38.08;;;20.20;;
67274;SDS011;55463;52.324;5.122;2022-12-11T06:16:03;41.75;;;20.60;;
67274;SDS011;55463;52.324;5.122;2022-12-11T06:18:30;43.90;;;22.08;;
67274;SDS011;55463;52.324;5.122;2022-12-11T06:20:55;44.08;;;21.58;;
67274;SDS011;55463;52.324;5.122;2022-12-11T06:23:21;39.70;;;21.83;;
67274;SDS011;55463;52.324;5.122;2022-12-11T06:25:46;45.55;;;20.63;;
67274;SDS011;55463;52.324;5.122;2022-12-11T06:28:11;41.88;;;21.88;;
67274;SDS011;55463;52.324;5.122;2022-12-11T06:30:37;42.88;;;20.25;;
67274;SDS011;55463;52.324;5.122;2022-12-11T06:33:02;40.30;;;22.23;;
67274;SDS011;55463;52.324;5.122;2022-12-11T06:35:28;45.13;;;22.77;;
67274;SDS011;55463;52.324;5.122;2022-12-11T06:37:54;41.15;;;21.33;;
67274;SDS011;55463;52.324;5.122;2022-12-11T06:40:19;46.38;;;22.13;;
67274;SDS011;55463;52.324;5.122;2022-12-11T06:42:44;43.10;;;20.60;;
67274;SDS011;55463;52.324;5.122;2022-12-11T06:45:10;41.38;;;21.27;;
67274;SDS011;55463;52.324;5.122;2022-12-11T06:47:35;43.53;;;20.63;;
67274;SDS011;55463;52.324;5.122;2022-12-11T06:50:01;37.50;;;20.17;;
67274;SDS011;55463;52.324;5.122;2022-12-11T06:52:27;39.03;;;20.77;;
67274;SDS011;55463;52.324;5.122;2022-12-11T06:54:53;38.47;;;22.08;;
67274;SDS011;55463;52.324;5.122;2022-12-11T06:57:18;40.97;;;22.23;;
67274;SDS011;55463;52.324;5.122;2022-12-11T06:59:44;42.47;;;20.45;;
67274;SDS011;55463;52.324;5.122;2022-12-11T07:02:18;41.65;;;21.15;;
67274;SDS011;55463;52.324;5.122;2022-12-11T07:04:44;47.10;;;22.35;;
67274;SDS011;55463;52.324;5.122;2022-12-11T07:07:10;41.20;;;20.60;;
67274;SDS011;55463;52.324;5.122;2022-12-11T07:09:37;47.80;;;19.77;;
67274;SDS011;55463;52.324;5.122;2022-12-11T07:12:04;41.47;;;21.13;;
67274;SDS011;55463;52.324;5.122;2022-12-11T07:14:30;43.15;;;20.98;;
67274;SDS011;55463;52.324;5.122;2022-12-11T07:16:56;38.80;;;19.95;;
67274;SDS011;55463;52.324;5.122;2022-12-11T07:19:22;42.33;;;21.67;;
67274;SDS011;55463;52.324;5.122;2022-12-11T07:21:47;39.53;;;19.63;;
67274;SDS011;55463;52.324;5.122;2022-12-11T07:24:13;41.85;;;20.95;;
67274;SDS011;55463;52.324;5.122;2022-12-11T07:26:39;40.80;;;20.17;;
67274;SDS011;55463;52.324;5.122;2022-12-11T07:29:04;37.75;;;18.08;;
67274;SDS011;55463;52.324;5.122;2022-12-11T07:31:29;35.47;;;19.27;;
67274;SDS011;55463;52.324;5.122;2022-12-11T07:33:55;37.15;;;18.58;;
67274;SDS011;55463;52.324;5.122;2022-12-11T07:36:26;32.42;;;17.80;;
67274;SDS011;55463;52.324;5.122;2022-12-11T07:38:52;32.92;;;17.40;;
67274;SDS011;55463;52.324;5.122;2022-12-11T07:41:18;33.83;;;16.95;;
67274;SDS011;55463;52.324;5.122;2022-12-11T07:43:43;33.63;;;16.25;;
67274;SDS011;55463;52.324;5.122;2022-12-11T07:46:12;30.55;;;17.05;;
67274;SDS011;55463;52.324;5.122;2022-12-11T07:48:40;34.72;;;17.33;;
67274;SDS011;55463;52.324;5.122;2022-12-11T07:51:14;33.88;;;18.52;;
67274;SDS011;55463;52.324;5.122;2022-12-11T07:53:42;32.65;;;16.55;;
67274;SDS011;55463;52.324;5.122;2022-12-11T07:56:09;33.22;;;16.73;;
67274;SDS011;55463;52.324;5.122;2022-12-11T07:58:35;35.22;;;18.58;;
67274;SDS011;55463;52.324;5.122;2022-12-11T08:01:02;33.20;;;17.23;;
67274;SDS011;55463;52.324;5.122;2022-12-11T08:03:34;39.17;;;18.27;;
67274;SDS011;55463;52.324;5.122;2022-12-11T08:05:59;38.20;;;18.83;;
67274;SDS011;55463;52.324;5.122;2022-12-11T08:08:25;34.95;;;17.60;;
67274;SDS011;55463;52.324;5.122;2022-12-11T08:10:50;37.15;;;18.25;;
67274;SDS011;55463;52.324;5.122;2022-12-11T08:13:15;44.95;;;20.17;;
67274;SDS011;55463;52.324;5.122;2022-12-11T08:15:41;43.28;;;19.33;;
67274;SDS011;55463;52.324;5.122;2022-12-11T08:18:06;43.38;;;22.67;;
67274;SDS011;55463;52.324;5.122;2022-12-11T08:20:32;40.65;;;19.67;;
67274;SDS011;55463;52.324;5.122;2022-12-11T08:22:57;45.75;;;21.35;;
67274;SDS011;55463;52.324;5.122;2022-12-11T08:25:23;38.25;;;19.27;;
67274;SDS011;55463;52.324;5.122;2022-12-11T08:27:48;35.67;;;17.75;;
67274;SDS011;55463;52.324;5.122;2022-12-11T08:30:13;32.22;;;16.83;;
67274;SDS011;55463;52.324;5.122;2022-12-11T08:32:39;38.55;;;15.95;;
67274;SDS011;55463;52.324;5.122;2022-12-11T08:35:05;38.60;;;18.05;;
67274;SDS011;55463;52.324;5.122;2022-12-11T08:37:32;32.17;;;18.20;;
67274;SDS011;55463;52.324;5.122;2022-12-11T08:39:58;35.08;;;16.13;;
67274;SDS011;55463;52.324;5.122;2022-12-11T08:42:23;35.03;;;16.95;;
67274;SDS011;55463;52.324;5.122;2022-12-11T08:44:49;29.65;;;16.15;;
67274;SDS011;55463;52.324;5.122;2022-12-11T08:47:15;34.53;;;17.67;;
67274;SDS011;55463;52.324;5.122;2022-12-11T08:49:41;34.80;;;16.40;;
67274;SDS011;55463;52.324;5.122;2022-12-11T08:52:06;32.22;;;16.77;;
67274;SDS011;55463;52.324;5.122;2022-12-11T08:54:32;37.53;;;19.65;;
67274;SDS011;55463;52.324;5.122;2022-12-11T08:56:57;37.20;;;17.90;;
67274;SDS011;55463;52.324;5.122;2022-12-11T08:59:23;41.30;;;20.13;;
67274;SDS011;55463;52.324;5.122;2022-12-11T09:01:49;39.75;;;20.27;;
67274;SDS011;55463;52.324;5.122;2022-12-11T09:04:15;40.28;;;19.77;;
67274;SDS011;55463;52.324;5.122;2022-12-11T09:06:40;39.58;;;20.15;;
67274;SDS011;55463;52.324;5.122;2022-12-11T09:09:06;45.28;;;22.20;;
67274;SDS011;55463;52.324;5.122;2022-12-11T09:11:33;43.55;;;21.17;;
67274;SDS011;55463;52.324;5.122;2022-12-11T09:14:00;43.35;;;21.27;;
67274;SDS011;55463;52.324;5.122;2022-12-11T09:16:26;40.55;;;20.30;;
67274;SDS011;55463;52.324;5.122;2022-12-11T09:18:53;44.40;;;21.05;;
67274;SDS011;55463;52.324;5.122;2022-12-11T09:21:21;42.58;;;20.95;;
67274;SDS011;55463;52.324;5.122;2022-12-11T09:23:51;39.50;;;20.42;;
67274;SDS011;55463;52.324;5.122;2022-12-11T09:26:18;46.88;;;21.15;;
67274;SDS011;55463;52.324;5.122;2022-12-11T09:28:44;41.42;;;20.17;;
67274;SDS011;55463;52.324;5.122;2022-12-11T09:31:10;42.40;;;20.25;;
67274;SDS011;55463;52.324;5.122;2022-12-11T09:33:37;42.72;;;21.17;;
67274;SDS011;55463;52.324;5.122;2022-12-11T09:36:04;39.10;;;20.27;;
67274;SDS011;55463;52.324;5.122;2022-12-11T09:38:30;40.80;;;19.60;;
67274;SDS011;55463;52.324;5.122;2022-12-11T09:40:56;37.60;;;19.92;;
67274;SDS011;55463;52.324;5.122;2022-12-11T09:43:38;43.25;;;20.90;;
67274;SDS011;55463;52.324;5.122;2022-12-11T09:46:12;39.42;;;20.35;;
67274;SDS011;55463;52.324;5.122;2022-12-11T09:48:43;40.10;;;20.70;;
67274;SDS011;55463;52.324;5.122;2022-12-11T09:51:31;46.75;;;21.60;;
67274;SDS011;55463;52.324;5.122;2022-12-11T09:54:04;36.45;;;19.15;;
67274;SDS011;55463;52.324;5.122;2022-12-11T09:56:35;42.15;;;20.85;;
67274;SDS011;55463;52.324;5.122;2022-12-11T10:02:21;39.80;;;19.52;;
67274;SDS011;55463;52.324;5.122;2022-12-11T10:08:20;35.63;;;18.23;;
67274;SDS011;55463;52.324;5.122;2022-12-11T10:15:59;35.08;;;18.60;;
67274;SDS011;55463;52.324;5.122;2022-12-11T10:18:33;39.15;;;18.88;;
67274;SDS011;55463;52.324;5.122;2022-12-11T10:21:00;42.53;;;19.30;;
67274;SDS011;55463;52.324;5.122;2022-12-11T10:23:35;37.60;;;18.67;;
67274;SDS011;55463;52.324;5.122;2022-12-11T10:26:16;33.88;;;17.58;;
67274;SDS011;55463;52.324;5.122;2022-12-11T10:28:43;36.58;;;17.80;;
67274;SDS011;55463;52.324;5.122;2022-12-11T10:31:12;30.42;;;17.13;;
67274;SDS011;55463;52.324;5.122;2022-12-11T10:33:45;30.40;;;17.83;;
67274;SDS011;55463;52.324;5.122;2022-12-11T10:36:31;36.47;;;18.90;;
67274;SDS011;55463;52.324;5.122;2022-12-11T10:38:59;36.08;;;18.90;;
67274;SDS011;55463;52.324;5.122;2022-12-11T10:44:17;34.70;;;18.58;;
67274;SDS011;55463;52.324;5.122;2022-12-11T10:46:48;34.90;;;19.17;;
67274;SDS011;55463;52.324;5.122;2022-12-11T10:49:27;39.47;;;19.73;;
67274;SDS011;55463;52.324;5.122;2022-12-11T10:51:54;33.03;;;19.15;;
67274;SDS011;55463;52.324;5.122;2022-12-11T10:54:31;37.50;;;20.25;;
67274;SDS011;55463;52.324;5.122;2022-12-11T10:57:05;38.90;;;20.50;;
67274;SDS011;55463;52.324;5.122;2022-12-11T11:02:16;38.60;;;21.00;;
67274;SDS011;55463;52.324;5.122;2022-12-11T11:04:53;39.88;;;21.42;;
67274;SDS011;55463;52.324;5.122;2022-12-11T11:09:47;42.72;;;22.23;;
67274;SDS011;55463;52.324;5.122;2022-12-11T11:12:25;33.97;;;18.98;;
67274;SDS011;55463;52.324;5.122;2022-12-11T11:15:01;38.97;;;21.63;;
67274;SDS011;55463;52.324;5.122;2022-12-11T11:17:30;35.42;;;20.70;;
67274;SDS011;55463;52.324;5.122;2022-12-11T11:19:57;36.88;;;21.17;;
67274;SDS011;55463;52.324;5.122;2022-12-11T11:22:28;34.08;;;20.02;;
67274;SDS011;55463;52.324;5.122;2022-12-11T11:24:56;35.90;;;20.13;;
67274;SDS011;55463;52.324;5.122;2022-12-11T11:33:19;35.83;;;20.73;;
67274;SDS011;55463;52.324;5.122;2022-12-11T11:35:53;36.28;;;19.63;;
67274;SDS011;55463;52.324;5.122;2022-12-11T11:38:25;37.20;;;21.17;;
67274;SDS011;55463;52.324;5.122;2022-12-11T11:40:59;35.75;;;19.90;;
67274;SDS011;55463;52.324;5.122;2022-12-11T11:51:31;41.60;;;21.60;;
67274;SDS011;55463;52.324;5.122;2022-12-11T11:54:00;46.25;;;22.42;;
67274;SDS011;55463;52.324;5.122;2022-12-11T11:56:45;44.50;;;21.85;;
67274;SDS011;55463;52.324;5.122;2022-12-11T12:02:00;46.88;;;23.02;;
67274;SDS011;55463;52.324;5.122;2022-12-11T12:04:28;44.13;;;21.50;;
67274;SDS011;55463;52.324;5.122;2022-12-11T12:07:19;51.53;;;23.02;;
67274;SDS011;55463;52.324;5.122;2022-12-11T12:10:00;36.60;;;20.85;;
67274;SDS011;55463;52.324;5.122;2022-12-11T12:12:58;40.25;;;21.55;;
67274;SDS011;55463;52.324;5.122;2022-12-11T12:19:00;42.50;;;21.15;;
67274;SDS011;55463;52.324;5.122;2022-12-11T12:21:27;36.92;;;20.25;;
67274;SDS011;55463;52.324;5.122;2022-12-11T12:24:04;39.40;;;20.95;;
67274;SDS011;55463;52.324;5.122;2022-12-11T12:32:15;33.70;;;18.63;;
67274;SDS011;55463;52.324;5.122;2022-12-11T12:38:10;33.45;;;18.85;;
67274;SDS011;55463;52.324;5.122;2022-12-11T12:43:55;34.42;;;18.65;;
67274;SDS011;55463;52.324;5.122;2022-12-11T12:52:05;34.42;;;19.15;;
67274;SDS011;55463;52.324;5.122;2022-12-11T12:54:37;32.88;;;18.80;;
67274;SDS011;55463;52.324;5.122;2022-12-11T12:57:04;37.00;;;17.58;;
67274;SDS011;55463;52.324;5.122;2022-12-11T12:59:30;32.90;;;18.73;;
67274;SDS011;55463;52.324;5.122;2022-12-11T13:01:59;32.15;;;17.88;;
67274;SDS011;55463;52.324;5.122;2022-12-11T13:04:40;36.50;;;17.83;;
67274;SDS011;55463;52.324;5.122;2022-12-11T13:07:11;36.67;;;18.60;;
67274;SDS011;55463;52.324;5.122;2022-12-11T13:09:53;33.95;;;18.92;;
67274;SDS011;55463;52.324;5.122;2022-12-11T13:12:41;36.08;;;19.48;;
67274;SDS011;55463;52.324;5.122;2022-12-11T13:17:55;33.88;;;18.67;;
67274;SDS011;55463;52.324;5.122;2022-12-11T13:20:24;33.50;;;18.88;;
67274;SDS011;55463;52.324;5.122;2022-12-11T13:25:46;32.92;;;17.45;;
67274;SDS011;55463;52.324;5.122;2022-12-11T13:33:49;30.58;;;17.60;;
67274;SDS011;55463;52.324;5.122;2022-12-11T13:38:49;32.53;;;17.33;;
67274;SDS011;55463;52.324;5.122;2022-12-11T13:41:19;30.50;;;16.80;;
67274;SDS011;55463;52.324;5.122;2022-12-11T13:43:45;30.70;;;16.83;;
67274;SDS011;55463;52.324;5.122;2022-12-11T13:46:12;29.90;;;17.25;;
67274;SDS011;55463;52.324;5.122;2022-12-11T13:48:45;34.50;;;18.33;;
67274;SDS011;55463;52.324;5.122;2022-12-11T13:51:17;32.85;;;17.13;;
67274;SDS011;55463;52.324;5.122;2022-12-11T13:53:47;37.47;;;18.50;;
67274;SDS011;55463;52.324;5.122;2022-12-11T13:56:19;36.28;;;18.63;;
67274;SDS011;55463;52.324;5.122;2022-12-11T13:58:46;44.17;;;18.45;;
67274;SDS011;55463;52.324;5.122;2022-12-11T14:04:11;39.35;;;20.52;;
67274;SDS011;55463;52.324;5.122;2022-12-11T14:06:40;44.15;;;20.42;;
67274;SDS011;55463;52.324;5.122;2022-12-11T14:09:06;42.38;;;19.65;;
67274;SDS011;55463;52.324;5.122;2022-12-11T14:11:36;40.70;;;20.42;;
67274;SDS011;55463;52.324;5.122;2022-12-11T14:14:06;41.03;;;20.88;;
67274;SDS011;55463;52.324;5.122;2022-12-11T14:16:40;44.42;;;20.92;;
67274;SDS011;55463;52.324;5.122;2022-12-11T14:19:06;44.38;;;20.13;;
67274;SDS011;55463;52.324;5.122;2022-12-11T14:21:33;43.88;;;20.88;;
67274;SDS011;55463;52.324;5.122;2022-12-11T14:24:00;48.10;;;21.73;;
67274;SDS011;55463;52.324;5.122;2022-12-11T14:29:02;43.58;;;20.83;;
67274;SDS011;55463;52.324;5.122;2022-12-11T14:31:28;45.70;;;21.15;;
67274;SDS011;55463;52.324;5.122;2022-12-11T14:34:16;43.10;;;22.42;;
67274;SDS011;55463;52.324;5.122;2022-12-11T14:37:03;42.97;;;21.15;;
67274;SDS011;55463;52.324;5.122;2022-12-11T14:39:35;44.50;;;21.20;;
67274;SDS011;55463;52.324;5.122;2022-12-11T14:42:09;44.60;;;21.83;;
67274;SDS011;55463;52.324;5.122;2022-12-11T14:47:28;46.80;;;22.15;;
67274;SDS011;55463;52.324;5.122;2022-12-11T14:50:14;43.28;;;20.42;;
67274;SDS011;55463;52.324;5.122;2022-12-11T14:52:42;45.42;;;20.75;;
67274;SDS011;55463;52.324;5.122;2022-12-11T14:55:17;48.42;;;21.27;;
67274;SDS011;55463;52.324;5.122;2022-12-11T14:57:46;62.78;;;26.25;;
67274;SDS011;55463;52.324;5.122;2022-12-11T15:00:19;47.25;;;22.35;;
67274;SDS011;55463;52.324;5.122;2022-12-11T15:02:54;47.77;;;21.87;;
67274;SDS011;55463;52.324;5.122;2022-12-11T15:05:21;49.60;;;23.20;;
67274;SDS011;55463;52.324;5.122;2022-12-11T15:07:55;46.13;;;22.05;;
67274;SDS011;55463;52.324;5.122;2022-12-11T15:10:23;43.35;;;21.77;;
67274;SDS011;55463;52.324;5.122;2022-12-11T15:12:51;47.22;;;21.33;;
67274;SDS011;55463;52.324;5.122;2022-12-11T15:15:18;50.50;;;21.27;;
67274;SDS011;55463;52.324;5.122;2022-12-11T15:17:44;44.80;;;21.23;;
67274;SDS011;55463;52.324;5.122;2022-12-11T15:20:19;45.72;;;21.48;;
67274;SDS011;55463;52.324;5.122;2022-12-11T15:22:47;46.10;;;21.38;;
67274;SDS011;55463;52.324;5.122;2022-12-11T15:25:17;44.53;;;21.42;;
67274;SDS011;55463;52.324;5.122;2022-12-11T15:27:51;48.40;;;21.10;;
67274;SDS011;55463;52.324;5.122;2022-12-11T15:35:52;43.60;;;19.55;;
67274;SDS011;55463;52.324;5.122;2022-12-11T15:38:29;49.17;;;21.17;;
67274;SDS011;55463;52.324;5.122;2022-12-11T15:41:00;46.05;;;20.58;;
67274;SDS011;55463;52.324;5.122;2022-12-11T15:43:27;44.60;;;20.55;;
67274;SDS011;55463;52.324;5.122;2022-12-11T15:45:53;47.80;;;21.75;;
67274;SDS011;55463;52.324;5.122;2022-12-11T15:48:19;50.35;;;21.10;;
67274;SDS011;55463;52.324;5.122;2022-12-11T15:50:44;47.78;;;22.50;;
67274;SDS011;55463;52.324;5.122;2022-12-11T15:53:10;45.22;;;20.77;;
67274;SDS011;55463;52.324;5.122;2022-12-11T15:55:35;42.38;;;19.67;;
67274;SDS011;55463;52.324;5.122;2022-12-11T15:58:03;46.40;;;21.25;;
67274;SDS011;55463;52.324;5.122;2022-12-11T16:00:31;48.78;;;21.00;;
67274;SDS011;55463;52.324;5.122;2022-12-11T16:02:57;42.05;;;20.73;;
67274;SDS011;55463;52.324;5.122;2022-12-11T16:05:23;44.13;;;21.63;;
67274;SDS011;55463;52.324;5.122;2022-12-11T16:07:49;47.22;;;21.80;;
67274;SDS011;55463;52.324;5.122;2022-12-11T16:10:20;46.65;;;22.77;;
67274;SDS011;55463;52.324;5.122;2022-12-11T16:12:46;53.25;;;23.27;;
67274;SDS011;55463;52.324;5.122;2022-12-11T16:15:12;46.30;;;21.48;;
67274;SDS011;55463;52.324;5.122;2022-12-11T16:17:39;51.50;;;21.85;;